Port Angeles, WA

9:33 AM PDT on March 28, 2015 (GMT -0700)
Top of Mt. Pleasant Rd. | | Change Station
CLOSE
Current Station
Personal Weather Station
Location: Port Angeles, WA
Elevation: 1237 ft
Nearby Weather Stations

Elev 1237 ft 48.04 °N, 123.36 °W | Updated 3 seconds ago

Overcast
Overcast
48.9 °F
Feels Like 49 °F
N
2.5
Wind Variable Wind from ESE
Gusts 4.9 mph

Today
High -- | Low -- °F
--% Chance of Precip.
Yesterday
High -- | Low -- °F
Precip. -- in
7:00 AM 7:37 PM
Waxing Gibbous, 63% visible
Pressure 30.23 in
Visibility 10.0 miles
Clouds Clear
Windchill 49 °F
Dew Point 38 °F
Humidity 67%
Rainfall 0.00 in
Snow Depth Not available.
UV 2.0 out of 12
Pollen 2.30 out of 12
Air Quality Not available.
Flu Activity Not available.
METAR KCLM 281553Z AUTO 29009KT 10SM CLR 12/05 A3022 RMK AO2 SLP236 T01170050

More Conditions Fewer Conditions

Pressure 30.23 in
Visibility 10.0 miles
Clouds Clear
Windchill 49 °F
Dew Point 38 °F
Humidity 67%
Rainfall 0.00 in
Snow Depth Not available.
UV 2.0 out of 12
Pollen 2.30 out of 12
Air Quality Not available.
Flu Activity Not available.
METAR KCLM 281553Z AUTO 29009KT 10SM CLR 12/05 A3022 RMK AO2 SLP236 T01170050

More Conditions Fewer Conditions

10-Day Weather Forecast

Almanac

Astronomy

Mar. 28, 2015 Rise Set
Actual Time
Civil Twilight
Nautical Twilight
Astronomical Twilight
Moon
Length of Visible Light
Length of Day
Tomorrow will be .
, % of the Moon is Illuminated

Today's Extremes

State Highs State Lows

Community

WunderPhotos

Upload Photos

1,809,027 photos uploaded!

WunderBlogs® & News

Nearby

Air Quality

  Air Quality AQ Index Pollutant
Not available.

Snow Depth

Station Depth Elevation

Earthquake Activity

City Distance Mag. Time & Date
Minimum magnitude displayed is 2.5.

Coastal Water Temperatures

Place Temperature

Stations

Nearby Weather Stations

Station Location Temp. Windchill Dew Point Humidity Wind Precip. Elev Updated Type